createdAt,value
2018-11-04T00:01:45.965Z,78.62
2018-11-04T00:04:14.123Z,78.30
2018-11-04T00:06:42.447Z,78.27
2018-11-04T00:09:11.296Z,78.68
2018-11-04T00:11:39.831Z,79.18
2018-11-04T00:14:08.070Z,79.45
2018-11-04T00:16:36.347Z,79.22
2018-11-04T00:19:04.576Z,79.52
2018-11-04T00:21:33.173Z,79.53
2018-11-04T00:24:01.420Z,79.90
2018-11-04T00:26:29.856Z,79.08
2018-11-04T00:28:58.143Z,78.54
2018-11-04T00:31:26.563Z,78.56
2018-11-04T00:33:54.655Z,78.10
2018-11-04T00:36:23.040Z,78.78
2018-11-04T00:38:51.446Z,78.44
2018-11-04T00:41:19.514Z,78.78
2018-11-04T00:43:47.968Z,78.88
2018-11-04T00:46:16.454Z,78.46
2018-11-04T00:48:44.930Z,78.45
2018-11-04T00:51:13.227Z,78.41
2018-11-04T00:53:41.708Z,78.42
2018-11-04T00:56:09.428Z,78.56
2018-11-04T00:58:37.445Z,78.91
2018-11-04T01:01:05.932Z,79.94
2018-11-04T01:03:34.173Z,79.91
2018-11-04T01:06:02.680Z,79.73
2018-11-04T01:08:31.124Z,78.59
2018-11-04T01:10:59.380Z,78.79
2018-11-04T01:13:27.503Z,79.67
2018-11-04T01:15:55.954Z,80.93
2018-11-04T01:18:24.187Z,80.83
2018-11-04T01:20:52.303Z,80.42
2018-11-04T01:23:20.573Z,80.03
2018-11-04T01:25:49.099Z,79.42
2018-11-04T01:28:16.911Z,79.75
2018-11-04T01:30:45.408Z,78.95
2018-11-04T01:33:13.708Z,78.82
2018-11-04T01:35:41.451Z,78.95
2018-11-04T01:38:09.211Z,79.09
2018-11-04T01:40:36.979Z,79.19
2018-11-04T01:43:05.065Z,79.26
2018-11-04T01:45:33.207Z,79.72
2018-11-04T01:48:01.715Z,80.03
2018-11-04T01:50:29.492Z,80.44
2018-11-04T01:52:57.418Z,79.65
2018-11-04T01:55:25.886Z,79.35
2018-11-04T01:57:54.011Z,79.31
2018-11-04T02:00:22.341Z,79.49
2018-11-04T02:02:50.567Z,79.33
2018-11-04T02:05:18.851Z,78.99
2018-11-04T02:07:47.310Z,78.33
2018-11-04T02:10:15.379Z,78.65
2018-11-04T02:12:43.165Z,78.86
2018-11-04T02:15:11.987Z,78.73
2018-11-04T02:17:39.734Z,78.31
2018-11-04T02:20:09.494Z,78.25
2018-11-04T02:22:37.963Z,78.41
2018-11-04T02:25:06.807Z,78.72
2018-11-04T02:27:34.860Z,78.55
2018-11-04T02:30:03.339Z,78.87
2018-11-04T02:32:31.586Z,78.69
2018-11-04T02:34:59.880Z,78.72
2018-11-04T02:37:28.240Z,78.65
2018-11-04T02:39:56.513Z,78.89
2018-11-04T02:42:25.063Z,78.78
2018-11-04T02:44:53.231Z,78.19
2018-11-04T02:47:21.345Z,78.13
2018-11-04T02:49:49.872Z,78.29
2018-11-04T02:52:18.060Z,78.63
2018-11-04T02:54:46.275Z,78.49
2018-11-04T02:57:14.483Z,78.64
2018-11-04T02:59:42.960Z,78.73
2018-11-04T03:02:11.249Z,79.08
2018-11-04T03:04:39.812Z,79.47
2018-11-04T03:07:07.927Z,78.59
2018-11-04T03:09:36.079Z,78.64
2018-11-04T03:12:04.550Z,78.62
2018-11-04T03:14:33.094Z,78.88
2018-11-04T03:17:01.551Z,79.40
2018-11-04T03:19:29.839Z,79.08
2018-11-04T03:21:58.014Z,79.26
2018-11-04T03:24:26.501Z,78.94
2018-11-04T03:26:54.796Z,79.01
2018-11-04T03:29:23.048Z,78.71
2018-11-04T03:31:50.780Z,79.31
2018-11-04T03:34:19.029Z,79.40
2018-11-04T03:36:47.236Z,78.85
2018-11-04T03:39:15.307Z,78.52
2018-11-04T03:41:43.486Z,78.28
2018-11-04T03:44:11.941Z,78.37
2018-11-04T03:46:40.160Z,79.01
2018-11-04T03:49:09.063Z,78.78
2018-11-04T03:51:37.535Z,78.87
2018-11-04T03:54:05.625Z,78.46
2018-11-04T03:56:34.134Z,78.70
2018-11-04T03:59:02.609Z,78.47
2018-11-04T04:01:30.799Z,79.25
2018-11-04T04:03:58.983Z,79.64
2018-11-04T04:06:27.220Z,79.51
2018-11-04T04:08:55.470Z,79.10
2018-11-04T04:11:24.020Z,79.15
2018-11-04T04:13:52.255Z,78.70
2018-11-04T04:16:20.788Z,78.85
2018-11-04T04:18:49.027Z,79.04
2018-11-04T04:21:17.223Z,80.12
2018-11-04T04:23:45.331Z,80.29
2018-11-04T04:26:13.521Z,79.89
2018-11-04T04:28:41.703Z,80.56
2018-11-04T04:31:09.943Z,80.03
2018-11-04T04:33:38.247Z,79.44
2018-11-04T04:36:06.277Z,79.34
2018-11-04T04:38:34.783Z,79.68
2018-11-04T04:41:03.124Z,80.06
2018-11-04T04:43:31.502Z,79.57
2018-11-04T04:45:59.575Z,78.87
2018-11-04T04:48:27.578Z,79.08
2018-11-04T04:50:56.266Z,79.14
2018-11-04T04:53:25.013Z,79.45
2018-11-04T04:55:55.091Z,79.54
2018-11-04T04:58:23.408Z,78.92
2018-11-04T05:00:51.406Z,79.10
2018-11-04T05:03:19.123Z,79.05
2018-11-04T05:05:46.855Z,79.70
2018-11-04T05:08:14.600Z,79.07
2018-11-04T05:10:42.386Z,78.65
2018-11-04T05:13:10.091Z,79.32
2018-11-04T05:15:37.866Z,80.16
2018-11-04T05:18:06.220Z,80.35
2018-11-04T05:20:33.908Z,80.03
2018-11-04T05:23:01.651Z,81.23
2018-11-04T05:25:29.808Z,82.57
2018-11-04T05:27:58.055Z,82.50
2018-11-04T05:30:26.315Z,82.62
2018-11-04T05:32:54.610Z,81.09
2018-11-04T05:35:23.138Z,80.87
2018-11-04T05:37:51.382Z,80.72
2018-11-04T05:40:19.859Z,79.38
2018-11-04T05:42:47.697Z,78.92
2018-11-04T05:45:15.451Z,78.87
2018-11-04T05:47:43.255Z,78.39
2018-11-04T05:50:11.712Z,79.34
2018-11-04T05:52:39.931Z,79.40
2018-11-04T05:55:08.674Z,77.59
2018-11-04T05:57:37.246Z,76.31
2018-11-04T06:00:07.011Z,75.19
2018-11-04T06:02:34.786Z,74.56
2018-11-04T06:05:02.883Z,74.98
2018-11-04T06:07:31.064Z,73.29
2018-11-04T06:09:59.583Z,73.46
2018-11-04T06:12:27.819Z,71.92
2018-11-04T06:14:56.305Z,72.18
2018-11-04T06:17:24.436Z,71.49
2018-11-04T06:19:52.663Z,68.65
2018-11-04T06:22:20.974Z,71.32
2018-11-04T06:24:49.648Z,65.13
2018-11-04T06:27:17.919Z,69.01
2018-11-04T06:29:46.391Z,68.08
2018-11-04T06:32:14.677Z,64.15
2018-11-04T06:34:43.192Z,63.23
2018-11-04T06:37:10.935Z,62.58
2018-11-04T06:39:39.299Z,66.65
2018-11-04T06:42:07.553Z,66.67
2018-11-04T06:44:35.825Z,63.67
2018-11-04T06:47:04.350Z,58.95
2018-11-04T06:49:32.682Z,59.59
2018-11-04T06:52:00.886Z,62.13
2018-11-04T06:54:28.963Z,63.47
2018-11-04T06:56:57.370Z,62.29
2018-11-04T06:59:25.252Z,59.34
2018-11-04T07:01:53.177Z,58.59
2018-11-04T07:04:25.998Z,58.12
2018-11-04T07:06:54.039Z,60.84
2018-11-04T07:09:22.473Z,62.63
2018-11-04T07:11:50.729Z,61.24
2018-11-04T07:14:19.423Z,59.03
2018-11-04T07:16:47.709Z,59.64
2018-11-04T07:19:16.115Z,58.32
2018-11-04T07:21:44.530Z,58.22
2018-11-04T07:24:12.961Z,56.56
2018-11-04T07:26:41.247Z,56.31
2018-11-04T07:29:09.779Z,56.56
2018-11-04T07:31:37.808Z,56.80
2018-11-04T07:34:05.991Z,56.77
2018-11-04T07:36:34.208Z,60.22
2018-11-04T07:39:03.296Z,59.18
2018-11-04T07:41:31.700Z,58.28
2018-11-04T07:43:59.988Z,60.36
2018-11-04T07:46:28.500Z,60.53
2018-11-04T07:48:56.768Z,60.56
2018-11-04T07:51:25.300Z,61.18
2018-11-04T07:53:53.463Z,62.05
2018-11-04T07:56:21.235Z,61.16
2018-11-04T07:58:49.079Z,59.92
2018-11-04T08:01:16.895Z,59.15
2018-11-04T08:03:44.693Z,59.71
2018-11-04T08:06:12.644Z,58.42
2018-11-04T08:08:40.391Z,57.04
2018-11-04T08:11:08.095Z,56.14
2018-11-04T08:13:36.018Z,56.35
2018-11-04T08:16:03.707Z,57.23
2018-11-04T08:18:31.411Z,58.28
2018-11-04T08:20:59.237Z,59.53
2018-11-04T08:23:27.004Z,59.27
2018-11-04T08:25:54.747Z,59.75
2018-11-04T08:28:22.599Z,59.29
2018-11-04T08:30:50.449Z,60.87
2018-11-04T08:33:18.256Z,61.75
2018-11-04T08:35:46.679Z,59.98
2018-11-04T08:38:14.976Z,58.03
2018-11-04T08:40:43.335Z,55.39
2018-11-04T08:43:11.475Z,53.06
2018-11-04T08:45:39.914Z,52.59
2018-11-04T08:48:08.231Z,51.72
2018-11-04T08:50:36.718Z,52.82
2018-11-04T08:53:05.008Z,52.26
2018-11-04T08:55:33.346Z,52.54
2018-11-04T08:58:01.747Z,52.60
2018-11-04T09:00:29.803Z,51.10
2018-11-04T09:02:57.998Z,50.52
2018-11-04T09:05:26.152Z,53.47
2018-11-04T09:07:54.375Z,53.07
2018-11-04T09:10:22.504Z,52.18
2018-11-04T09:12:50.746Z,52.79
2018-11-04T09:15:19.221Z,52.38
2018-11-04T09:17:47.503Z,50.85
2018-11-04T09:20:16.644Z,52.36
2018-11-04T09:22:44.537Z,50.85
2018-11-04T09:25:13.191Z,51.80
2018-11-04T09:27:41.315Z,51.00
2018-11-04T09:30:11.910Z,51.02
2018-11-04T09:32:39.695Z,52.08
2018-11-04T09:35:08.254Z,49.86
2018-11-04T09:37:35.850Z,48.67
2018-11-04T09:40:04.298Z,46.49
2018-11-04T09:42:32.088Z,47.62
2018-11-04T09:44:59.888Z,47.26
2018-11-04T09:47:27.672Z,45.85
2018-11-04T09:49:55.500Z,45.31
2018-11-04T09:52:23.299Z,43.66
2018-11-04T09:54:51.402Z,44.57
2018-11-04T09:57:19.519Z,43.55
2018-11-04T09:59:47.770Z,41.47
2018-11-04T10:02:16.005Z,39.39
2018-11-04T10:04:44.156Z,40.88
2018-11-04T10:07:12.520Z,39.42
2018-11-04T10:09:40.262Z,39.31
2018-11-04T10:12:08.031Z,39.99
2018-11-04T10:14:36.178Z,39.11
2018-11-04T10:17:04.472Z,38.72
2018-11-04T10:19:33.106Z,38.24
2018-11-04T10:22:01.205Z,37.39
2018-11-04T10:24:29.293Z,35.47
2018-11-04T10:26:57.628Z,37.59
2018-11-04T10:29:25.851Z,38.54
2018-11-04T10:31:54.334Z,39.59
2018-11-04T10:34:22.642Z,38.41
2018-11-04T10:36:51.050Z,38.94
2018-11-04T10:39:19.152Z,37.98
2018-11-04T10:41:47.690Z,39.52
2018-11-04T10:44:15.897Z,38.23
2018-11-04T10:46:44.363Z,36.01
2018-11-04T10:49:12.841Z,38.31
2018-11-04T10:51:41.155Z,40.09
2018-11-04T10:54:09.403Z,39.55
2018-11-04T10:56:37.807Z,39.46
2018-11-04T10:59:06.031Z,38.55
2018-11-04T11:01:34.361Z,38.20
2018-11-04T11:04:02.636Z,39.23
2018-11-04T11:06:31.043Z,39.13
2018-11-04T11:08:59.090Z,42.23
2018-11-04T11:11:27.361Z,39.64
2018-11-04T11:13:55.467Z,39.85
2018-11-04T11:16:23.662Z,39.32
2018-11-04T11:18:51.427Z,40.37
2018-11-04T11:21:19.151Z,38.50
2018-11-04T11:23:46.864Z,37.62
2018-11-04T11:26:14.583Z,37.71
2018-11-04T11:28:42.309Z,37.77
2018-11-04T11:31:10.024Z,38.43
2018-11-04T11:33:37.871Z,36.32
2018-11-04T11:36:05.959Z,36.03
2018-11-04T11:38:33.738Z,36.63
2018-11-04T11:41:01.564Z,35.57
2018-11-04T11:43:29.381Z,35.53
2018-11-04T11:45:57.114Z,35.24
2018-11-04T11:48:24.891Z,35.97
2018-11-04T11:50:52.601Z,34.95
2018-11-04T11:53:20.439Z,36.37
2018-11-04T11:55:48.248Z,36.96
2018-11-04T11:58:15.996Z,37.78
2018-11-04T12:00:43.735Z,37.23
2018-11-04T12:03:11.496Z,36.28
2018-11-04T12:05:39.263Z,36.56
2018-11-04T12:08:07.015Z,38.00
2018-11-04T12:10:34.780Z,37.50
2018-11-04T12:13:03.497Z,38.06
2018-11-04T12:15:31.351Z,37.13
2018-11-04T12:17:59.268Z,35.75
2018-11-04T12:20:27.106Z,34.56
2018-11-04T12:22:54.923Z,34.54
2018-11-04T12:25:22.743Z,34.37
2018-11-04T12:27:50.511Z,35.56
2018-11-04T12:30:18.235Z,35.99
2018-11-04T12:32:45.950Z,36.31
2018-11-04T12:35:14.174Z,35.75
2018-11-04T12:37:42.162Z,33.56
2018-11-04T12:40:11.496Z,33.29
2018-11-04T12:42:39.343Z,33.13
2018-11-04T12:45:08.501Z,35.72
2018-11-04T12:47:36.427Z,36.55
2018-11-04T12:50:05.431Z,34.49
2018-11-04T12:52:33.243Z,33.29
2018-11-04T12:55:01.019Z,33.32
2018-11-04T12:57:28.750Z,35.13
2018-11-04T12:59:56.444Z,34.99
2018-11-04T13:02:24.176Z,36.04
2018-11-04T13:04:52.196Z,36.18
2018-11-04T13:07:20.015Z,35.54
2018-11-04T13:09:47.755Z,35.13
2018-11-04T13:12:15.479Z,34.21
2018-11-04T13:14:43.195Z,34.76
2018-11-04T13:17:10.988Z,36.72
2018-11-04T13:19:38.690Z,36.70
2018-11-04T13:22:06.527Z,36.47
2018-11-04T13:24:34.285Z,37.13
2018-11-04T13:27:02.077Z,36.49
2018-11-04T13:29:29.823Z,36.64
2018-11-04T13:31:57.570Z,38.33
2018-11-04T13:34:25.392Z,37.14
2018-11-04T13:36:53.985Z,38.29
2018-11-04T13:39:21.763Z,38.82
2018-11-04T13:41:49.491Z,37.45
2018-11-04T13:44:17.250Z,39.31
2018-11-04T13:46:45.075Z,38.66
2018-11-04T13:49:12.844Z,39.15
2018-11-04T13:51:40.616Z,39.24
2018-11-04T13:54:08.338Z,39.22
2018-11-04T13:56:36.084Z,38.65
2018-11-04T13:59:03.919Z,39.36
2018-11-04T14:01:31.715Z,41.22
2018-11-04T14:03:59.503Z,41.25
2018-11-04T14:06:27.340Z,43.80
2018-11-04T14:08:55.140Z,44.77
2018-11-04T14:11:22.895Z,45.59
2018-11-04T14:13:50.610Z,45.95
2018-11-04T14:16:18.348Z,46.24
2018-11-04T14:18:46.126Z,45.95
2018-11-04T14:21:13.837Z,47.00
2018-11-04T14:23:41.640Z,47.14
2018-11-04T14:26:09.398Z,47.51
2018-11-04T14:28:37.210Z,48.35
2018-11-04T14:31:05.413Z,47.77
2018-11-04T14:33:33.124Z,47.76
2018-11-04T14:36:00.891Z,47.53
2018-11-04T14:38:28.727Z,47.74
2018-11-04T14:40:56.483Z,48.45
2018-11-04T14:43:24.313Z,48.11
2018-11-04T14:45:52.093Z,49.09
2018-11-04T14:48:19.863Z,49.62
2018-11-04T14:50:47.651Z,49.51
2018-11-04T14:53:15.428Z,49.56
2018-11-04T14:55:43.181Z,50.21
2018-11-04T14:58:10.993Z,50.79
2018-11-04T15:00:38.775Z,52.00
2018-11-04T15:03:07.047Z,52.13
2018-11-04T15:05:34.821Z,51.87
2018-11-04T15:08:02.744Z,52.29
2018-11-04T15:10:30.526Z,52.77
2018-11-04T15:12:58.307Z,52.91
2018-11-04T15:15:26.160Z,52.92
2018-11-04T15:17:53.971Z,52.39
2018-11-04T15:20:21.779Z,54.24
2018-11-04T15:22:51.180Z,55.08
2018-11-04T15:25:20.542Z,55.27
2018-11-04T15:27:49.075Z,55.03
2018-11-04T15:30:17.378Z,55.05
2018-11-04T15:32:45.561Z,56.16
2018-11-04T15:35:14.619Z,56.30
2018-11-04T15:37:43.105Z,56.73
2018-11-04T15:40:12.548Z,57.15
2018-11-04T15:42:41.039Z,58.09
2018-11-04T15:45:10.673Z,56.44
2018-11-04T15:47:39.039Z,56.55
2018-11-04T15:50:09.128Z,56.16
2018-11-04T15:52:36.953Z,55.15
2018-11-04T15:55:05.211Z,56.15
2018-11-04T15:57:32.971Z,56.79
2018-11-04T16:00:00.714Z,56.67
2018-11-04T16:02:28.526Z,56.58
2018-11-04T16:04:56.250Z,56.55
2018-11-04T16:07:24.104Z,56.25
2018-11-04T16:09:51.845Z,56.13
2018-11-04T16:12:19.626Z,58.25
2018-11-04T16:14:47.461Z,58.02
2018-11-04T16:17:15.135Z,58.51
2018-11-04T16:19:42.879Z,58.56
2018-11-04T16:22:10.685Z,58.96
2018-11-04T16:24:38.475Z,58.89
2018-11-04T16:27:06.259Z,59.71
2018-11-04T16:29:34.088Z,59.72
2018-11-04T16:32:02.127Z,61.00
2018-11-04T16:34:29.928Z,60.79
2018-11-04T16:36:57.762Z,60.06
2018-11-04T16:39:25.499Z,60.78
2018-11-04T16:41:53.272Z,60.24
2018-11-04T16:44:21.359Z,59.51
2018-11-04T16:46:48.997Z,59.67
2018-11-04T16:49:16.723Z,59.76
2018-11-04T16:51:45.367Z,60.92
2018-11-04T16:54:13.172Z,61.07
2018-11-04T16:56:41.003Z,60.68
2018-11-04T16:59:08.768Z,64.96
2018-11-04T17:01:36.563Z,63.55
2018-11-04T17:04:04.432Z,62.56
2018-11-04T17:06:32.478Z,61.75
2018-11-04T17:09:00.286Z,61.24
2018-11-04T17:11:28.285Z,60.48
2018-11-04T17:13:56.093Z,60.82
2018-11-04T17:16:23.995Z,60.29
2018-11-04T17:18:51.724Z,60.37
2018-11-04T17:21:19.983Z,60.67
2018-11-04T17:23:48.585Z,61.50
2018-11-04T17:26:16.999Z,61.77
2018-11-04T17:28:44.842Z,63.85
2018-11-04T17:31:12.587Z,63.47
2018-11-04T17:33:41.567Z,63.04
2018-11-04T17:36:09.880Z,63.47
2018-11-04T17:38:38.159Z,64.15
2018-11-04T17:41:06.503Z,64.33
2018-11-04T17:43:34.727Z,64.14
2018-11-04T17:46:03.037Z,64.88
2018-11-04T17:48:31.191Z,64.77
2018-11-04T17:50:59.744Z,64.26
2018-11-04T17:53:27.606Z,64.87
2018-11-04T17:55:55.708Z,65.63
2018-11-04T17:58:24.084Z,65.72
2018-11-04T18:00:53.451Z,65.22
2018-11-04T18:03:21.570Z,65.46
2018-11-04T18:05:49.854Z,65.86
2018-11-04T18:08:17.742Z,67.30
2018-11-04T18:10:46.056Z,65.94
2018-11-04T18:13:14.728Z,65.38
2018-11-04T18:15:42.595Z,65.72
2018-11-04T18:18:10.804Z,65.26
2018-11-04T18:20:38.743Z,65.13
2018-11-04T18:23:06.678Z,65.20
2018-11-04T18:25:34.576Z,65.57
2018-11-04T18:28:02.584Z,64.92
2018-11-04T18:30:30.615Z,64.88
2018-11-04T18:32:58.595Z,64.87
2018-11-04T18:35:26.411Z,65.06
2018-11-04T18:37:54.183Z,65.78
2018-11-04T18:40:21.987Z,65.14
2018-11-04T18:42:49.783Z,64.75
2018-11-04T18:45:17.946Z,65.46
2018-11-04T18:47:45.839Z,66.71
2018-11-04T18:50:14.624Z,66.68
2018-11-04T18:52:42.574Z,66.36
2018-11-04T18:55:11.696Z,65.89
2018-11-04T18:57:40.488Z,66.03
2018-11-04T19:00:10.903Z,66.08
2018-11-04T19:02:38.649Z,66.15
2018-11-04T19:05:06.875Z,66.49
2018-11-04T19:07:34.749Z,66.20
2018-11-04T19:10:02.499Z,66.60
2018-11-04T19:12:30.240Z,67.85
2018-11-04T19:14:57.967Z,67.23
2018-11-04T19:17:26.065Z,67.78
2018-11-04T19:19:53.863Z,67.95
2018-11-04T19:22:21.663Z,67.75
2018-11-04T19:24:49.507Z,67.55
2018-11-04T19:27:17.300Z,67.51
2018-11-04T19:29:45.788Z,67.76
2018-11-04T19:32:13.936Z,68.20
2018-11-04T19:34:42.416Z,67.96
2018-11-04T19:37:10.959Z,68.37
2018-11-04T19:39:39.116Z,68.75
2018-11-04T19:42:07.450Z,68.40
2018-11-04T19:44:35.700Z,68.18
2018-11-04T19:47:04.551Z,69.34
2018-11-04T19:49:32.937Z,68.59
2018-11-04T19:52:01.142Z,68.71
2018-11-04T19:54:29.624Z,69.97
2018-11-04T19:56:58.042Z,68.89
2018-11-04T19:59:27.140Z,68.66
2018-11-04T20:01:55.365Z,68.89
2018-11-04T20:04:23.623Z,69.55
2018-11-04T20:06:51.393Z,69.75
2018-11-04T20:09:19.126Z,69.60
2018-11-04T20:11:47.055Z,68.92
2018-11-04T20:14:18.391Z,68.35
2018-11-04T20:16:47.415Z,69.80
2018-11-04T20:19:20.613Z,68.83
2018-11-04T20:21:48.452Z,68.88
2018-11-04T20:24:21.615Z,68.27
2018-11-04T20:26:49.683Z,68.15
2018-11-04T20:29:17.596Z,68.97
2018-11-04T20:31:51.647Z,70.02
2018-11-04T20:34:19.901Z,69.58
2018-11-04T20:36:48.359Z,69.13
2018-11-04T20:39:22.063Z,69.04
2018-11-04T20:41:50.251Z,68.85
2018-11-04T20:44:18.716Z,69.33
2018-11-04T20:46:46.984Z,69.78
2018-11-04T20:49:20.145Z,69.83
2018-11-04T20:51:48.184Z,69.21
2018-11-04T20:54:15.875Z,69.46
2018-11-04T20:56:49.004Z,69.95
2018-11-04T20:59:16.753Z,70.32
2018-11-04T21:01:44.523Z,70.45
2018-11-04T21:04:12.412Z,70.30
2018-11-04T21:06:40.759Z,70.17
2018-11-04T21:09:09.978Z,70.15
2018-11-04T21:11:38.372Z,70.97
2018-11-04T21:14:06.636Z,70.09
2018-11-04T21:16:35.139Z,70.76
2018-11-04T21:19:03.416Z,69.97
2018-11-04T21:21:32.116Z,70.01
2018-11-04T21:24:00.355Z,70.88
2018-11-04T21:26:28.612Z,69.75
2018-11-04T21:28:56.710Z,69.49
2018-11-04T21:31:25.150Z,69.24
2018-11-04T21:33:53.483Z,69.81
2018-11-04T21:36:24.388Z,70.03
2018-11-04T21:38:52.617Z,70.10
2018-11-04T21:41:21.083Z,69.27
2018-11-04T21:43:49.397Z,68.43
2018-11-04T21:46:17.687Z,68.26
2018-11-04T21:48:46.140Z,68.10
2018-11-04T21:51:14.923Z,68.12
2018-11-04T21:53:43.235Z,68.47
2018-11-04T21:56:11.656Z,69.65
2018-11-04T21:58:39.631Z,68.91
2018-11-04T22:01:07.498Z,69.40
2018-11-04T22:03:35.735Z,69.96
2018-11-04T22:06:03.870Z,70.42
2018-11-04T22:08:32.120Z,71.37
2018-11-04T22:11:00.246Z,70.68
2018-11-04T22:13:28.488Z,71.00
2018-11-04T22:15:56.879Z,69.46
2018-11-04T22:18:25.278Z,69.36
2018-11-04T22:20:53.576Z,70.47
2018-11-04T22:23:21.823Z,70.14
2018-11-04T22:25:50.064Z,69.41
2018-11-04T22:28:18.338Z,70.03
2018-11-04T22:30:46.509Z,70.89
2018-11-04T22:33:14.922Z,72.33
2018-11-04T22:35:43.207Z,72.29
2018-11-04T22:38:11.671Z,71.96
2018-11-04T22:40:39.956Z,71.53
2018-11-04T22:43:08.414Z,72.20
2018-11-04T22:45:36.523Z,72.49
2018-11-04T22:48:04.799Z,72.54
2018-11-04T22:50:33.018Z,71.92
2018-11-04T22:53:00.975Z,72.95
2018-11-04T22:55:29.392Z,72.97
2018-11-04T22:58:03.238Z,72.49
2018-11-04T23:00:36.867Z,73.23
2018-11-04T23:03:05.313Z,73.26
2018-11-04T23:05:33.582Z,73.63
2018-11-04T23:08:02.037Z,72.75
2018-11-04T23:10:30.210Z,73.17
2018-11-04T23:12:58.487Z,74.24
2018-11-04T23:15:26.906Z,74.52
2018-11-04T23:17:55.408Z,72.92
2018-11-04T23:20:23.659Z,72.71
2018-11-04T23:22:52.110Z,73.49
2018-11-04T23:25:20.372Z,72.43
2018-11-04T23:27:48.846Z,72.04
2018-11-04T23:30:17.816Z,72.33
2018-11-04T23:32:46.268Z,72.88
2018-11-04T23:35:14.744Z,72.66
2018-11-04T23:37:43.782Z,73.35
2018-11-04T23:40:12.110Z,72.67
2018-11-04T23:42:40.339Z,73.42
2018-11-04T23:45:09.744Z,73.83
2018-11-04T23:47:38.074Z,73.85
2018-11-04T23:50:08.847Z,73.29
2018-11-04T23:52:36.978Z,74.42
2018-11-04T23:55:05.511Z,75.01
2018-11-04T23:57:33.939Z,75.13
